createdAt,value
2022-11-14T00:01:20.829Z,5.60
2022-11-14T00:04:08.206Z,5.60
2022-11-14T00:06:56.004Z,5.50
2022-11-14T00:09:43.163Z,5.60
2022-11-14T00:12:30.354Z,5.60
2022-11-14T00:15:17.853Z,5.60
2022-11-14T00:18:05.370Z,5.70
2022-11-14T00:20:54.036Z,5.50
2022-11-14T00:23:41.233Z,5.40
2022-11-14T00:26:28.420Z,5.30
2022-11-14T00:29:16.603Z,5.40
2022-11-14T00:32:03.991Z,5.30
2022-11-14T00:34:51.149Z,5.40
2022-11-14T00:37:38.442Z,5.40
2022-11-14T00:40:25.982Z,5.40
2022-11-14T00:43:13.605Z,5.30
2022-11-14T00:46:00.832Z,5.40
2022-11-14T00:48:47.994Z,5.40
2022-11-14T00:51:35.681Z,5.40
2022-11-14T00:54:23.349Z,5.50
2022-11-14T00:57:10.848Z,5.50
2022-11-14T00:59:58.228Z,5.30
2022-11-14T01:02:45.461Z,5.30
2022-11-14T01:05:33.018Z,5.30
2022-11-14T01:08:20.868Z,5.30
2022-11-14T01:11:14.086Z,5.30
2022-11-14T01:14:01.735Z,5.10
2022-11-14T01:16:49.194Z,4.90
2022-11-14T01:19:36.345Z,4.80
2022-11-14T01:22:23.924Z,4.60
2022-11-14T01:25:11.244Z,4.60
2022-11-14T01:27:58.424Z,4.50
2022-11-14T01:30:46.094Z,4.40
2022-11-14T01:33:33.499Z,4.40
2022-11-14T01:36:21.555Z,4.30
2022-11-14T01:39:08.994Z,4.30
2022-11-14T01:41:56.303Z,4.30
2022-11-14T01:44:52.495Z,4.30
2022-11-14T01:47:40.124Z,4.20
2022-11-14T01:50:29.208Z,4.20
2022-11-14T01:53:16.307Z,4.20
2022-11-14T01:56:06.369Z,4.20
2022-11-14T01:58:56.905Z,4.20
2022-11-14T02:01:47.011Z,4.30
2022-11-14T02:04:40.715Z,4.30
2022-11-14T02:07:30.726Z,4.50
2022-11-14T02:10:20.612Z,4.60
2022-11-14T02:13:08.657Z,4.60
2022-11-14T02:15:55.912Z,4.70
2022-11-14T02:18:44.468Z,4.70
2022-11-14T02:21:31.781Z,4.70
2022-11-14T02:24:19.467Z,4.50
2022-11-14T02:27:08.748Z,4.40
2022-11-14T02:29:56.048Z,4.40
2022-11-14T02:35:33.788Z,4.50
2022-11-14T02:38:23.737Z,4.50
2022-11-14T02:41:11.186Z,4.40
2022-11-14T02:43:58.530Z,4.40
2022-11-14T02:46:46.124Z,4.40
2022-11-14T02:49:33.594Z,4.50
2022-11-14T02:52:22.101Z,4.50
2022-11-14T02:55:10.445Z,4.50
2022-11-14T02:57:58.013Z,4.50
2022-11-14T03:01:13.564Z,4.40
2022-11-14T03:03:34.516Z,4.40
2022-11-14T03:06:24.817Z,4.30
2022-11-14T03:09:12.452Z,4.30
2022-11-14T03:12:00.107Z,4.30
2022-11-14T03:14:47.300Z,4.20
2022-11-14T03:17:36.025Z,4.20
2022-11-14T03:20:26.313Z,4.30
2022-11-14T03:23:13.511Z,4.30
2022-11-14T03:26:03.267Z,4.20
2022-11-14T03:28:51.427Z,4.20
2022-11-14T03:31:38.725Z,4.10
2022-11-14T03:34:27.587Z,4.00
2022-11-14T03:37:15.139Z,3.90
2022-11-14T03:40:02.339Z,3.90
2022-11-14T03:42:49.494Z,3.90
2022-11-14T03:45:38.766Z,3.90
2022-11-14T03:48:26.754Z,3.90
2022-11-14T03:51:14.181Z,4.00
2022-11-14T03:54:01.465Z,3.90
2022-11-14T03:56:48.702Z,4.00
2022-11-14T03:59:36.934Z,4.00
2022-11-14T04:02:24.336Z,4.00
2022-11-14T04:05:11.816Z,4.10
2022-11-14T04:07:59.250Z,4.00
2022-11-14T04:10:48.917Z,4.00
2022-11-14T04:13:35.770Z,4.00
2022-11-14T04:16:25.855Z,3.90
2022-11-14T04:19:13.083Z,3.90
2022-11-14T04:22:00.683Z,3.80
2022-11-14T04:24:47.820Z,3.90
2022-11-14T04:27:35.294Z,3.90
2022-11-14T04:30:22.899Z,3.90
2022-11-14T04:33:10.149Z,4.00
2022-11-14T04:35:57.536Z,4.00
2022-11-14T04:38:44.935Z,4.00
2022-11-14T04:41:32.575Z,4.10
2022-11-14T04:44:20.015Z,4.10
2022-11-14T04:47:07.492Z,4.10
2022-11-14T04:49:55.006Z,4.20
2022-11-14T04:52:42.464Z,4.20
2022-11-14T04:55:29.688Z,4.20
2022-11-14T04:58:16.953Z,4.40
2022-11-14T05:01:12.009Z,4.40
2022-11-14T05:03:59.095Z,4.60
2022-11-14T05:06:46.318Z,4.80
2022-11-14T05:09:33.492Z,5.10
2022-11-14T05:12:21.413Z,5.20
2022-11-14T05:15:09.607Z,5.30
2022-11-14T05:17:59.059Z,5.50
2022-11-14T05:20:46.569Z,5.60
2022-11-14T05:23:34.342Z,5.70
2022-11-14T05:26:24.617Z,5.80
2022-11-14T05:29:11.754Z,5.90
2022-11-14T05:31:59.057Z,6.00
2022-11-14T05:34:46.325Z,6.20
2022-11-14T05:37:36.664Z,6.30
2022-11-14T05:40:25.706Z,6.40
2022-11-14T05:43:12.904Z,6.50
2022-11-14T05:46:05.504Z,6.60
2022-11-14T05:48:54.637Z,6.70
2022-11-14T05:51:42.070Z,6.80
2022-11-14T05:54:29.738Z,6.90
2022-11-14T05:57:16.872Z,6.90
2022-11-14T06:00:06.239Z,7.00
2022-11-14T06:02:55.370Z,7.10
2022-11-14T06:05:42.681Z,7.20
2022-11-14T06:08:31.690Z,7.30
2022-11-14T06:11:21.498Z,7.30
2022-11-14T06:14:11.256Z,7.40
2022-11-14T06:16:58.908Z,7.50
2022-11-14T06:19:46.243Z,7.60
2022-11-14T06:22:35.867Z,7.70
2022-11-14T06:25:23.482Z,7.80
2022-11-14T06:28:10.777Z,7.80
2022-11-14T06:31:01.145Z,7.90
2022-11-14T06:33:48.969Z,8.00
2022-11-14T06:36:36.376Z,8.10
2022-11-14T06:39:23.650Z,8.00
2022-11-14T06:42:11.005Z,8.00
2022-11-14T06:44:58.293Z,8.10
2022-11-14T06:47:45.483Z,8.10
2022-11-14T06:50:32.703Z,8.20
2022-11-14T06:53:21.312Z,8.00
2022-11-14T06:56:16.758Z,7.80
2022-11-14T06:59:04.549Z,7.80
2022-11-14T07:01:53.937Z,7.80
2022-11-14T07:04:41.423Z,7.80
2022-11-14T07:07:29.009Z,7.90
2022-11-14T07:10:16.535Z,7.90
2022-11-14T07:13:03.797Z,8.00
2022-11-14T07:15:53.632Z,8.00
2022-11-14T07:18:40.825Z,8.10
2022-11-14T07:21:29.948Z,8.10
2022-11-14T07:24:17.606Z,7.90
2022-11-14T07:27:06.575Z,7.90
2022-11-14T07:29:53.597Z,8.00
2022-11-14T07:32:41.178Z,8.10
2022-11-14T07:35:28.597Z,8.20
2022-11-14T07:38:15.977Z,8.30
2022-11-14T07:41:11.808Z,8.40
2022-11-14T07:43:59.327Z,8.40
2022-11-14T07:46:46.833Z,8.50
2022-11-14T07:49:34.554Z,8.50
2022-11-14T07:52:23.686Z,8.50
2022-11-14T07:55:11.116Z,8.40
2022-11-14T07:58:00.380Z,8.40
2022-11-14T08:00:48.104Z,8.50
2022-11-14T08:03:36.650Z,8.50
2022-11-14T08:06:24.626Z,8.50
2022-11-14T08:09:11.915Z,8.40
2022-11-14T08:11:59.635Z,8.50
2022-11-14T08:14:46.793Z,8.40
2022-11-14T08:17:34.363Z,8.50
2022-11-14T08:20:41.089Z,8.50
2022-11-14T08:23:28.431Z,8.50
2022-11-14T08:26:15.544Z,8.60
2022-11-14T08:29:03.068Z,8.70
2022-11-14T08:31:53.469Z,8.60
2022-11-14T08:34:39.716Z,8.70
2022-11-14T08:37:27.129Z,8.80
2022-11-14T08:40:14.537Z,8.80
2022-11-14T08:43:03.026Z,8.90
2022-11-14T08:45:50.626Z,8.90
2022-11-14T08:48:37.869Z,8.90
2022-11-14T08:51:25.060Z,9.10
2022-11-14T08:54:12.342Z,9.10
2022-11-14T08:56:59.530Z,9.00
2022-11-14T08:59:46.944Z,9.10
2022-11-14T09:02:34.097Z,9.20
2022-11-14T09:05:22.047Z,9.20
2022-11-14T09:08:09.440Z,9.10
2022-11-14T09:10:59.178Z,9.20
2022-11-14T09:13:45.969Z,9.30
2022-11-14T09:16:33.865Z,9.30
2022-11-14T09:19:20.987Z,9.30
2022-11-14T09:22:08.521Z,9.20
2022-11-14T09:24:55.563Z,9.10
2022-11-14T09:27:42.970Z,9.20
2022-11-14T09:30:30.104Z,9.30
2022-11-14T09:33:17.398Z,9.30
2022-11-14T09:36:07.500Z,9.40
2022-11-14T09:38:54.713Z,9.50
2022-11-14T09:41:54.226Z,9.60
2022-11-14T09:44:47.841Z,9.70
2022-11-14T09:47:41.042Z,9.80
2022-11-14T09:50:31.368Z,10.10
2022-11-14T09:53:21.760Z,10.30
2022-11-14T09:56:12.086Z,10.30
2022-11-14T09:58:59.506Z,10.30
2022-11-14T10:01:58.549Z,10.40
2022-11-14T10:04:48.783Z,10.50
2022-11-14T10:07:42.149Z,10.50
2022-11-14T10:10:55.086Z,10.60
2022-11-14T10:13:51.438Z,10.60
2022-11-14T10:16:56.780Z,10.60
2022-11-14T10:20:21.257Z,10.70
2022-11-14T10:23:20.802Z,10.50
2022-11-14T10:26:17.015Z,10.50
2022-11-14T10:29:16.707Z,10.60
2022-11-14T10:32:26.380Z,10.70
2022-11-14T10:35:19.547Z,11.00
2022-11-14T10:38:19.246Z,11.30
2022-11-14T10:41:08.712Z,11.60
2022-11-14T10:43:56.706Z,11.60
2022-11-14T10:46:50.058Z,11.70
2022-11-14T10:49:38.605Z,11.70
2022-11-14T10:52:34.719Z,11.70
2022-11-14T10:55:43.543Z,11.90
2022-11-14T10:58:17.856Z,11.90
2022-11-14T11:01:35.156Z,12.10
2022-11-14T11:04:31.237Z,12.30
2022-11-14T11:07:42.602Z,12.40
2022-11-14T11:10:48.038Z,12.40
2022-11-14T11:13:37.988Z,12.50
2022-11-14T11:16:26.798Z,12.40
2022-11-14T11:19:19.762Z,12.20
2022-11-14T11:22:26.796Z,12.20
2022-11-14T11:25:26.260Z,11.90
2022-11-14T11:28:16.933Z,11.40
2022-11-14T11:31:10.049Z,11.10
2022-11-14T11:33:58.778Z,11.10
2022-11-14T11:36:49.154Z,11.10
2022-11-14T11:39:45.448Z,11.20
2022-11-14T11:43:23.640Z,11.20
2022-11-14T11:45:24.681Z,11.10
2022-11-14T11:48:20.480Z,11.10
2022-11-14T11:51:17.542Z,11.20
2022-11-14T11:54:16.772Z,11.10
2022-11-14T11:57:07.289Z,11.00
2022-11-14T11:59:58.831Z,11.00
2022-11-14T12:02:51.418Z,11.20
2022-11-14T12:05:56.930Z,11.10
2022-11-14T12:09:13.387Z,11.20
2022-11-14T12:12:04.035Z,11.40
2022-11-14T12:15:12.743Z,11.50
2022-11-14T12:18:33.225Z,11.60
2022-11-14T12:21:58.795Z,11.70
2022-11-14T12:24:50.769Z,12.00
2022-11-14T12:27:43.964Z,11.90
2022-11-14T12:30:32.596Z,11.80
2022-11-14T12:33:38.026Z,11.80
2022-11-14T12:36:33.981Z,11.70
2022-11-14T12:39:26.756Z,11.60
2022-11-14T12:42:16.180Z,11.50
2022-11-14T12:45:03.633Z,11.40
2022-11-14T12:48:32.095Z,11.50
2022-11-14T12:51:37.593Z,11.60
2022-11-14T12:54:45.610Z,11.70
2022-11-14T12:57:49.326Z,11.80
2022-11-14T13:00:49.060Z,11.80
2022-11-14T13:04:00.197Z,11.90
2022-11-14T13:07:14.860Z,11.80
2022-11-14T13:10:16.902Z,11.60
2022-11-14T13:13:34.237Z,11.70
2022-11-14T13:16:45.300Z,11.60
2022-11-14T13:19:50.724Z,11.50
2022-11-14T13:22:41.766Z,11.50
2022-11-14T13:25:29.432Z,11.60
2022-11-14T13:28:28.960Z,11.70
2022-11-14T13:31:28.228Z,11.70
2022-11-14T13:34:42.799Z,11.70
2022-11-14T13:38:01.868Z,11.80
2022-11-14T13:40:58.334Z,11.70
2022-11-14T13:44:00.855Z,11.70
2022-11-14T13:47:08.048Z,11.70
2022-11-14T13:50:10.142Z,11.70
2022-11-14T13:52:57.999Z,11.70
2022-11-14T13:55:54.098Z,11.80
2022-11-14T13:58:47.145Z,11.90
2022-11-14T14:01:40.346Z,12.10
2022-11-14T14:04:47.161Z,12.20
2022-11-14T14:07:52.587Z,12.40
2022-11-14T14:10:48.974Z,12.40
2022-11-14T14:13:47.941Z,12.40
2022-11-14T14:16:42.367Z,12.40
2022-11-14T14:19:41.853Z,12.40
2022-11-14T14:22:50.127Z,12.50
2022-11-14T14:26:08.945Z,12.50
2022-11-14T14:29:03.614Z,12.40
2022-11-14T14:31:48.324Z,12.40
2022-11-14T14:34:35.657Z,12.30
2022-11-14T14:37:26.269Z,12.40
2022-11-14T14:40:33.317Z,12.40
2022-11-14T14:43:26.581Z,12.50
2022-11-14T14:46:13.920Z,12.60
2022-11-14T14:49:03.841Z,12.70
2022-11-14T14:51:55.817Z,12.70
2022-11-14T14:54:40.301Z,12.60
2022-11-14T14:57:27.654Z,12.60
2022-11-14T15:00:21.766Z,12.70
2022-11-14T15:03:10.980Z,12.80
2022-11-14T15:06:06.436Z,12.60
2022-11-14T15:08:53.928Z,12.50
2022-11-14T15:11:44.086Z,12.60
2022-11-14T15:14:35.248Z,12.60
2022-11-14T15:17:23.720Z,12.60
2022-11-14T15:20:25.966Z,12.60
2022-11-14T15:23:21.197Z,12.60
2022-11-14T15:26:14.706Z,12.50
2022-11-14T15:29:07.915Z,12.60
2022-11-14T15:32:04.689Z,12.60
2022-11-14T15:35:25.083Z,12.60
2022-11-14T15:41:19.784Z,12.60
2022-11-14T15:44:07.275Z,12.50
2022-11-14T15:46:55.046Z,12.40
2022-11-14T15:49:45.253Z,12.40
2022-11-14T15:52:41.723Z,12.50
2022-11-14T15:55:29.135Z,12.40
2022-11-14T15:58:32.977Z,12.40
2022-11-14T16:01:05.283Z,12.40
2022-11-14T16:03:52.668Z,12.40
2022-11-14T16:06:39.761Z,12.30
2022-11-14T16:09:26.911Z,12.10
2022-11-14T16:12:14.526Z,12.10
2022-11-14T16:15:01.953Z,12.20
2022-11-14T16:17:51.082Z,12.30
2022-11-14T16:20:41.653Z,12.30
2022-11-14T16:23:29.381Z,12.20
2022-11-14T16:26:17.364Z,12.30
2022-11-14T16:29:04.748Z,12.40
2022-11-14T16:31:52.254Z,12.40
2022-11-14T16:34:39.650Z,12.10
2022-11-14T16:37:28.176Z,12.00
2022-11-14T16:40:19.424Z,11.90
2022-11-14T16:43:06.897Z,11.70
2022-11-14T16:45:53.870Z,11.60
2022-11-14T16:48:41.348Z,11.60
2022-11-14T16:54:19.348Z,11.60
2022-11-14T16:57:06.471Z,11.70
2022-11-14T16:59:53.715Z,11.80
2022-11-14T17:02:45.555Z,11.90
2022-11-14T17:05:33.067Z,11.80
2022-11-14T17:08:20.511Z,11.80
2022-11-14T17:11:11.641Z,11.80
2022-11-14T17:13:59.113Z,11.80
2022-11-14T17:16:47.504Z,11.80
2022-11-14T17:19:34.608Z,11.70
2022-11-14T17:22:21.542Z,11.60
2022-11-14T17:25:08.983Z,11.70
2022-11-14T17:27:56.622Z,11.50
2022-11-14T17:30:44.549Z,11.40
2022-11-14T17:33:32.394Z,11.40
2022-11-14T17:36:20.623Z,11.50
2022-11-14T17:39:07.937Z,11.50
2022-11-14T17:41:55.090Z,11.40
2022-11-14T17:44:42.357Z,11.50
2022-11-14T17:47:30.158Z,11.40
2022-11-14T17:50:17.621Z,11.40
2022-11-14T17:53:04.788Z,11.30
2022-11-14T17:55:58.433Z,11.40
2022-11-14T17:58:46.758Z,11.40
2022-11-14T18:01:34.832Z,11.50
2022-11-14T18:04:22.606Z,11.60
2022-11-14T18:07:10.111Z,11.60
2022-11-14T18:09:57.649Z,11.70
2022-11-14T18:12:45.276Z,11.70
2022-11-14T18:15:33.380Z,11.60
2022-11-14T18:18:20.718Z,11.70
2022-11-14T18:21:09.626Z,11.70
2022-11-14T18:23:59.351Z,11.70
2022-11-14T18:26:46.671Z,11.70
2022-11-14T18:29:34.088Z,11.80
2022-11-14T18:32:21.258Z,11.80
2022-11-14T18:35:10.038Z,11.90
2022-11-14T18:37:58.257Z,11.90
2022-11-14T18:40:45.438Z,11.90
2022-11-14T18:43:33.922Z,11.90
2022-11-14T18:46:23.491Z,11.90
2022-11-14T18:49:11.188Z,11.80
2022-11-14T18:52:01.043Z,11.80
2022-11-14T18:54:47.322Z,11.70
2022-11-14T18:57:34.930Z,11.70
2022-11-14T19:00:22.335Z,11.60
2022-11-14T19:03:11.068Z,11.70
2022-11-14T19:06:01.511Z,11.50
2022-11-14T19:08:49.249Z,11.50
2022-11-14T19:11:55.068Z,11.50
2022-11-14T19:14:42.714Z,11.50
2022-11-14T19:17:30.071Z,11.50
2022-11-14T19:20:17.872Z,11.50
2022-11-14T19:23:05.416Z,11.60
2022-11-14T19:25:52.625Z,11.60
2022-11-14T19:28:39.922Z,11.70
2022-11-14T19:31:27.423Z,11.80
2022-11-14T19:34:15.887Z,11.80
2022-11-14T19:37:03.009Z,11.80
2022-11-14T19:39:51.890Z,11.90
2022-11-14T19:42:39.397Z,11.90
2022-11-14T19:45:27.113Z,11.90
2022-11-14T19:48:14.680Z,11.90
2022-11-14T19:51:13.546Z,12.00
2022-11-14T19:54:02.331Z,12.10
2022-11-14T19:56:49.841Z,12.10
2022-11-14T19:59:37.082Z,12.20
2022-11-14T20:02:25.777Z,12.20
2022-11-14T20:05:12.975Z,12.10
2022-11-14T20:08:00.138Z,12.10
2022-11-14T20:11:02.530Z,12.10
2022-11-14T20:13:50.639Z,12.10
2022-11-14T20:16:38.283Z,12.10
2022-11-14T20:19:26.018Z,12.10
2022-11-14T20:22:13.497Z,12.20
2022-11-14T20:25:01.009Z,12.20
2022-11-14T20:27:49.044Z,12.10
2022-11-14T20:30:40.690Z,12.10
2022-11-14T20:33:27.947Z,12.10
2022-11-14T20:36:21.328Z,12.20
2022-11-14T20:39:08.602Z,12.10
2022-11-14T20:41:56.262Z,12.10
2022-11-14T20:44:43.870Z,12.00
2022-11-14T20:47:31.314Z,11.90
2022-11-14T20:50:19.173Z,11.70
2022-11-14T20:53:06.651Z,11.60
2022-11-14T20:55:54.131Z,11.60
2022-11-14T20:58:42.720Z,11.50
2022-11-14T21:01:30.235Z,11.40
2022-11-14T21:04:17.722Z,11.30
2022-11-14T21:07:04.826Z,11.30
2022-11-14T21:09:53.987Z,11.30
2022-11-14T21:12:45.617Z,11.30
2022-11-14T21:15:30.163Z,11.40
2022-11-14T21:18:17.562Z,11.40
2022-11-14T21:21:08.042Z,11.30
2022-11-14T21:23:56.820Z,11.20
2022-11-14T21:26:44.365Z,11.30
2022-11-14T21:29:31.548Z,11.30
2022-11-14T21:32:18.802Z,11.20
2022-11-14T21:35:09.725Z,11.10
2022-11-14T21:37:55.100Z,11.10
2022-11-14T21:40:42.573Z,11.10
2022-11-14T21:43:30.132Z,11.20
2022-11-14T21:46:17.473Z,11.20
2022-11-14T21:49:04.723Z,11.30
2022-11-14T21:51:52.006Z,11.30
2022-11-14T21:54:39.418Z,11.30
2022-11-14T21:57:26.874Z,11.30
2022-11-14T22:00:14.656Z,11.20
2022-11-14T22:03:20.086Z,11.20
2022-11-14T22:06:07.360Z,11.30
2022-11-14T22:08:56.271Z,11.40
2022-11-14T22:11:43.806Z,11.40
2022-11-14T22:14:31.285Z,11.40
2022-11-14T22:17:18.597Z,11.50
2022-11-14T22:20:06.158Z,11.50
2022-11-14T22:22:55.562Z,11.60
2022-11-14T22:25:42.701Z,11.70
2022-11-14T22:28:30.498Z,11.90
2022-11-14T22:31:20.690Z,11.90
2022-11-14T22:34:08.003Z,12.00
2022-11-14T22:36:55.319Z,12.00
2022-11-14T22:39:42.546Z,12.20
2022-11-14T22:42:30.015Z,12.20
2022-11-14T22:45:17.878Z,12.20
2022-11-14T22:48:04.938Z,12.20
2022-11-14T22:51:10.275Z,12.40
2022-11-14T22:53:59.146Z,12.40
2022-11-14T22:56:46.586Z,12.20
2022-11-14T22:59:33.869Z,12.00
2022-11-14T23:02:21.017Z,11.90
2022-11-14T23:05:08.684Z,11.80
2022-11-14T23:07:56.145Z,11.80
2022-11-14T23:10:43.419Z,11.80
2022-11-14T23:13:31.584Z,11.80
2022-11-14T23:16:21.549Z,11.80
2022-11-14T23:19:08.872Z,11.80
2022-11-14T23:21:55.750Z,11.80
2022-11-14T23:24:43.435Z,11.60
2022-11-14T23:27:30.745Z,11.60
2022-11-14T23:30:18.117Z,11.60
2022-11-14T23:33:06.333Z,11.60
2022-11-14T23:35:53.536Z,11.60
2022-11-14T23:38:40.965Z,11.50
2022-11-14T23:41:28.448Z,11.50
2022-11-14T23:44:15.831Z,11.40
2022-11-14T23:47:03.057Z,11.30
2022-11-14T23:49:50.475Z,11.40
2022-11-14T23:52:37.736Z,11.30
2022-11-14T23:55:25.207Z,11.20
2022-11-14T23:58:12.696Z,11.20
